Urb Monte Brisas 3, Puerto Rico
Current Conditions -  °F | °C
As of 5:53 AM on Monday 22 Dec 2014 (Local Time) from TJNR Reporting Station
Broken Clouds Broken Clouds  
Wind Chill: 77°   Ceiling: 4700
Heat Index: 78°   Visibility: 10mi
Dew Point: 72°   Wind: 7mph
Humidity: 84%   Direction: 50°NE
Pressure: 30.04"   Gusts: NA
Location:  18.3304°N, 65.6573°W
Report Text: TJNR 220953Z AUTO 05006KT 10SM FEW020 BKN047 25/22 A3004 RMK AO2 SLP170 T02500222 $
Loading
Personal Weather Stations






























Interactive Weather Map New forecast layout! Learn more

10-Day Weather Forecast

Advertisements
Track Severe Weather on mobile